sensor_id;sensor_type;location;lat;lon;timestamp;P1;durP1;ratioP1;P2;durP2;ratioP2
4047;SDS011;2038;51.728;6.674;2023-10-19T00:02:16;22.07;;;14.60;;
4047;SDS011;2038;51.728;6.674;2023-10-19T00:04:59;21.90;;;16.27;;
4047;SDS011;2038;51.728;6.674;2023-10-19T00:07:31;19.27;;;14.70;;
4047;SDS011;2038;51.728;6.674;2023-10-19T00:13:49;25.23;;;17.00;;
4047;SDS011;2038;51.728;6.674;2023-10-19T00:16:23;23.63;;;15.70;;
4047;SDS011;2038;51.728;6.674;2023-10-19T00:18:57;21.20;;;16.63;;
4047;SDS011;2038;51.728;6.674;2023-10-19T00:21:33;21.50;;;17.00;;
4047;SDS011;2038;51.728;6.674;2023-10-19T00:24:21;21.93;;;17.67;;
4047;SDS011;2038;51.728;6.674;2023-10-19T00:26:48;20.87;;;16.17;;
4047;SDS011;2038;51.728;6.674;2023-10-19T00:29:18;28.23;;;18.47;;
4047;SDS011;2038;51.728;6.674;2023-10-19T00:32:01;21.37;;;16.00;;
4047;SDS011;2038;51.728;6.674;2023-10-19T00:34:28;22.70;;;16.40;;
4047;SDS011;2038;51.728;6.674;2023-10-19T00:41:05;27.90;;;18.27;;
4047;SDS011;2038;51.728;6.674;2023-10-19T00:43:37;20.93;;;16.70;;
4047;SDS011;2038;51.728;6.674;2023-10-19T00:46:24;23.43;;;16.37;;
4047;SDS011;2038;51.728;6.674;2023-10-19T00:49:26;21.23;;;16.50;;
4047;SDS011;2038;51.728;6.674;2023-10-19T00:51:59;21.33;;;17.33;;
4047;SDS011;2038;51.728;6.674;2023-10-19T00:57:51;25.97;;;19.07;;
4047;SDS011;2038;51.728;6.674;2023-10-19T01:00:26;22.63;;;16.43;;
4047;SDS011;2038;51.728;6.674;2023-10-19T01:03:27;25.83;;;18.50;;
4047;SDS011;2038;51.728;6.674;2023-10-19T01:05:57;25.83;;;18.37;;
4047;SDS011;2038;51.728;6.674;2023-10-19T01:08:25;25.67;;;18.23;;
4047;SDS011;2038;51.728;6.674;2023-10-19T01:11:11;21.20;;;17.30;;
4047;SDS011;2038;51.728;6.674;2023-10-19T01:13:56;26.10;;;18.80;;
4047;SDS011;2038;51.728;6.674;2023-10-19T01:16:55;41.03;;;18.23;;
4047;SDS011;2038;51.728;6.674;2023-10-19T01:22:11;22.27;;;17.30;;
4047;SDS011;2038;51.728;6.674;2023-10-19T01:24:53;24.17;;;16.50;;
4047;SDS011;2038;51.728;6.674;2023-10-19T01:31:04;25.00;;;16.80;;
4047;SDS011;2038;51.728;6.674;2023-10-19T01:33:34;21.27;;;15.83;;
4047;SDS011;2038;51.728;6.674;2023-10-19T01:36:12;19.27;;;13.80;;
4047;SDS011;2038;51.728;6.674;2023-10-19T01:38:57;21.60;;;15.50;;
4047;SDS011;2038;51.728;6.674;2023-10-19T01:41:46;19.17;;;14.37;;
4047;SDS011;2038;51.728;6.674;2023-10-19T01:44:32;25.47;;;16.97;;
4047;SDS011;2038;51.728;6.674;2023-10-19T01:47:01;21.30;;;16.30;;
4047;SDS011;2038;51.728;6.674;2023-10-19T01:49:30;26.43;;;16.10;;
4047;SDS011;2038;51.728;6.674;2023-10-19T01:51:57;24.50;;;16.90;;
4047;SDS011;2038;51.728;6.674;2023-10-19T01:54:29;22.17;;;15.77;;
4047;SDS011;2038;51.728;6.674;2023-10-19T01:56:59;23.67;;;15.30;;
4047;SDS011;2038;51.728;6.674;2023-10-19T01:59:31;20.50;;;15.43;;
4047;SDS011;2038;51.728;6.674;2023-10-19T02:02:03;21.57;;;16.90;;
4047;SDS011;2038;51.728;6.674;2023-10-19T02:04:37;21.87;;;15.57;;
4047;SDS011;2038;51.728;6.674;2023-10-19T02:07:16;20.33;;;14.57;;
4047;SDS011;2038;51.728;6.674;2023-10-19T02:09:55;23.63;;;15.63;;
4047;SDS011;2038;51.728;6.674;2023-10-19T02:12:21;21.80;;;15.70;;
4047;SDS011;2038;51.728;6.674;2023-10-19T02:14:57;21.33;;;13.07;;
4047;SDS011;2038;51.728;6.674;2023-10-19T02:17:47;17.23;;;13.80;;
4047;SDS011;2038;51.728;6.674;2023-10-19T02:20:16;21.20;;;14.63;;
4047;SDS011;2038;51.728;6.674;2023-10-19T02:22:58;23.87;;;14.77;;
4047;SDS011;2038;51.728;6.674;2023-10-19T02:25:28;20.70;;;14.73;;
4047;SDS011;2038;51.728;6.674;2023-10-19T02:28:07;24.47;;;14.47;;
4047;SDS011;2038;51.728;6.674;2023-10-19T02:30:37;16.37;;;13.27;;
4047;SDS011;2038;51.728;6.674;2023-10-19T02:33:07;16.00;;;12.90;;
4047;SDS011;2038;51.728;6.674;2023-10-19T02:35:33;19.50;;;14.10;;
4047;SDS011;2038;51.728;6.674;2023-10-19T02:41:00;23.40;;;15.10;;
